createdAt,value
2018-10-11T00:00:38.280Z,98.30
2018-10-11T00:03:07.386Z,98.30
2018-10-11T00:05:36.425Z,98.30
2018-10-11T00:08:05.537Z,98.30
2018-10-11T00:10:34.556Z,98.30
2018-10-11T00:13:03.697Z,98.30
2018-10-11T00:15:32.802Z,98.20
2018-10-11T00:18:01.935Z,98.20
2018-10-11T00:20:31.032Z,98.20
2018-10-11T00:23:00.092Z,98.20
2018-10-11T00:25:29.155Z,98.20
2018-10-11T00:27:58.215Z,98.10
2018-10-11T00:30:27.313Z,98.20
2018-10-11T00:32:56.315Z,98.20
2018-10-11T00:35:25.436Z,98.30
2018-10-11T00:37:54.469Z,98.20
2018-10-11T00:40:23.578Z,98.30
2018-10-11T00:42:52.666Z,98.20
2018-10-11T00:45:21.725Z,98.30
2018-10-11T00:47:50.790Z,98.40
2018-10-11T00:50:19.854Z,98.40
2018-10-11T00:52:48.890Z,98.40
2018-10-11T00:55:17.981Z,98.30
2018-10-11T00:57:46.959Z,98.40
2018-10-11T01:00:16.080Z,98.40
2018-10-11T01:02:45.151Z,98.40
2018-10-11T01:05:14.244Z,98.40
2018-10-11T01:07:43.290Z,98.40
2018-10-11T01:10:12.365Z,98.40
2018-10-11T01:12:41.449Z,98.40
2018-10-11T01:15:10.465Z,98.40
2018-10-11T01:17:39.491Z,98.30
2018-10-11T01:20:08.570Z,98.20
2018-10-11T01:22:37.583Z,98.40
2018-10-11T01:25:06.639Z,98.40
2018-10-11T01:27:35.630Z,98.50
2018-10-11T01:30:04.996Z,98.50
2018-10-11T01:32:33.991Z,98.50
2018-10-11T01:35:03.095Z,98.60
2018-10-11T01:37:32.200Z,98.60
2018-10-11T01:40:01.320Z,98.60
2018-10-11T01:42:30.494Z,98.60
2018-10-11T01:44:59.709Z,98.60
2018-10-11T01:47:28.818Z,98.60
2018-10-11T01:49:57.876Z,98.60
2018-10-11T01:52:26.929Z,98.70
2018-10-11T01:54:56.013Z,98.70
2018-10-11T01:57:25.159Z,98.70
2018-10-11T01:59:54.244Z,98.80
2018-10-11T02:02:23.348Z,98.80
2018-10-11T02:04:52.429Z,98.90
2018-10-11T02:07:21.445Z,99.00
2018-10-11T02:09:50.484Z,98.90
2018-10-11T02:12:19.570Z,98.90
2018-10-11T02:14:48.653Z,98.90
2018-10-11T02:17:18.643Z,99.00
2018-10-11T02:19:47.701Z,99.00
2018-10-11T02:22:16.819Z,98.90
2018-10-11T02:24:45.841Z,99.00
2018-10-11T02:27:14.923Z,99.20
2018-10-11T02:29:43.953Z,99.00
2018-10-11T02:32:13.068Z,99.10
2018-10-11T02:34:42.219Z,99.10
2018-10-11T02:37:11.369Z,99.20
2018-10-11T02:39:40.413Z,99.20
2018-10-11T02:42:09.530Z,99.20
2018-10-11T02:44:38.587Z,99.20
2018-10-11T02:47:07.709Z,99.20
2018-10-11T02:49:36.794Z,99.20
2018-10-11T02:52:05.849Z,99.30
2018-10-11T02:54:34.958Z,99.30
2018-10-11T02:57:04.949Z,99.30
2018-10-11T02:59:36.281Z,99.30
2018-10-11T03:02:10.566Z,99.30
2018-10-11T03:04:39.793Z,99.30
2018-10-11T03:07:10.427Z,99.40
2018-10-11T03:09:40.213Z,99.30
2018-10-11T03:12:09.333Z,99.40
2018-10-11T03:14:38.416Z,99.40
2018-10-11T03:17:07.764Z,99.30
2018-10-11T03:19:36.938Z,99.30
2018-10-11T03:22:06.083Z,99.30
2018-10-11T03:24:35.200Z,99.30
2018-10-11T03:27:04.248Z,99.30
2018-10-11T03:29:33.369Z,99.30
2018-10-11T03:32:02.417Z,99.30
2018-10-11T03:34:31.549Z,99.30
2018-10-11T03:37:00.635Z,99.20
2018-10-11T03:39:29.959Z,99.20
2018-10-11T03:41:59.854Z,99.20
2018-10-11T03:44:29.377Z,99.20
2018-10-11T03:46:58.443Z,99.20
2018-10-11T03:49:27.523Z,99.10
2018-10-11T03:51:56.639Z,99.20
2018-10-11T03:54:26.022Z,99.20
2018-10-11T03:56:55.108Z,99.30
2018-10-11T03:59:24.735Z,99.20
2018-10-11T04:01:53.847Z,99.20
2018-10-11T04:04:22.852Z,99.30
2018-10-11T04:06:51.934Z,99.30
2018-10-11T04:09:20.925Z,99.30
2018-10-11T04:11:49.900Z,99.30
2018-10-11T04:14:18.955Z,99.30
2018-10-11T04:16:48.020Z,99.30
2018-10-11T04:19:17.059Z,99.70
2018-10-11T04:21:46.059Z,99.40
2018-10-11T04:24:15.055Z,99.40
2018-10-11T04:26:44.035Z,99.40
2018-10-11T04:29:13.129Z,99.40
2018-10-11T04:31:42.152Z,99.40
2018-10-11T04:34:11.126Z,99.40
2018-10-11T04:36:40.101Z,99.40
2018-10-11T04:39:10.175Z,99.50
2018-10-11T04:41:39.401Z,99.80
2018-10-11T04:44:08.402Z,99.40
2018-10-11T04:46:37.453Z,99.50
2018-10-11T04:49:06.639Z,99.50
2018-10-11T04:51:35.800Z,99.60
2018-10-11T04:54:04.891Z,99.60
2018-10-11T04:56:33.875Z,99.70
2018-10-11T04:59:02.913Z,99.70
2018-10-11T05:01:31.873Z,99.60
2018-10-11T05:04:00.923Z,99.60
2018-10-11T05:06:29.864Z,99.60
2018-10-11T05:08:58.966Z,99.60
2018-10-11T05:11:27.975Z,99.30
2018-10-11T05:13:57.895Z,99.60
2018-10-11T05:16:26.999Z,99.70
2018-10-11T05:18:59.074Z,99.80
2018-10-11T05:21:28.111Z,99.80
2018-10-11T05:23:57.209Z,99.90
2018-10-11T05:26:26.361Z,99.90
2018-10-11T05:28:55.459Z,99.90
2018-10-11T05:31:24.565Z,99.90
2018-10-11T05:33:54.274Z,99.90
2018-10-11T05:36:23.300Z,99.90
2018-10-11T05:38:52.262Z,99.90
2018-10-11T05:41:21.375Z,99.90
2018-10-11T05:43:50.600Z,99.90
2018-10-11T05:46:26.124Z,99.90
2018-10-11T05:48:55.825Z,99.90
2018-10-11T05:51:24.987Z,99.80
2018-10-11T05:53:55.502Z,99.90
2018-10-11T05:56:25.314Z,99.90
2018-10-11T05:58:54.540Z,99.90
2018-10-11T06:01:24.178Z,99.90
2018-10-11T06:03:53.756Z,99.90
2018-10-11T06:06:22.883Z,99.90
2018-10-11T06:08:52.728Z,99.90
2018-10-11T06:11:21.841Z,99.90
2018-10-11T06:13:51.832Z,99.90
2018-10-11T06:16:20.829Z,99.90
2018-10-11T06:18:50.006Z,99.90
2018-10-11T06:21:19.023Z,99.90
2018-10-11T06:23:48.098Z,99.90
2018-10-11T06:26:19.370Z,99.90
2018-10-11T06:28:48.603Z,99.90
2018-10-11T06:31:17.787Z,99.90
2018-10-11T06:33:48.485Z,99.90
2018-10-11T06:36:19.226Z,99.90
2018-10-11T06:38:48.445Z,99.90
2018-10-11T06:41:17.585Z,99.90
2018-10-11T06:43:46.618Z,99.90
2018-10-11T06:46:15.962Z,99.90
2018-10-11T06:48:45.220Z,99.90
2018-10-11T06:51:14.462Z,99.90
2018-10-11T06:53:43.574Z,99.90
2018-10-11T06:56:12.629Z,99.90
2018-10-11T06:58:41.675Z,99.90
2018-10-11T07:01:10.806Z,99.90
2018-10-11T07:03:39.835Z,99.90
2018-10-11T07:06:08.820Z,99.90
2018-10-11T07:08:37.793Z,99.90
2018-10-11T07:11:06.807Z,99.90
2018-10-11T07:13:35.926Z,99.90
2018-10-11T07:16:04.950Z,99.90
2018-10-11T07:18:33.978Z,99.90
2018-10-11T07:21:03.110Z,99.90
2018-10-11T07:23:32.214Z,99.90
2018-10-11T07:26:01.363Z,99.90
2018-10-11T07:28:30.369Z,99.90
2018-10-11T07:30:59.332Z,99.90
2018-10-11T07:33:28.369Z,99.90
2018-10-11T07:35:57.470Z,99.90
2018-10-11T07:38:26.700Z,99.90
2018-10-11T07:40:55.736Z,99.90
2018-10-11T07:43:24.826Z,99.90
2018-10-11T07:45:53.857Z,99.90
2018-10-11T07:48:22.935Z,99.90
2018-10-11T07:50:51.893Z,99.90
2018-10-11T07:53:20.904Z,99.90
2018-10-11T07:55:49.995Z,99.40
2018-10-11T07:58:19.082Z,99.20
2018-10-11T08:00:48.152Z,98.70
2018-10-11T08:03:17.168Z,98.10
2018-10-11T08:05:46.220Z,97.50
2018-10-11T08:08:15.236Z,96.90
2018-10-11T08:10:44.398Z,96.30
2018-10-11T08:13:13.431Z,96.10
2018-10-11T08:15:42.531Z,95.50
2018-10-11T08:18:11.575Z,94.70
2018-10-11T08:20:40.712Z,94.20
2018-10-11T08:23:09.627Z,93.30
2018-10-11T08:25:38.971Z,93.50
2018-10-11T08:28:08.020Z,92.80
2018-10-11T08:30:42.455Z,91.40
2018-10-11T08:33:11.651Z,91.60
2018-10-11T08:35:40.622Z,91.30
2018-10-11T08:38:09.904Z,91.00
2018-10-11T08:40:38.785Z,90.60
2018-10-11T08:43:07.778Z,89.60
2018-10-11T08:45:36.855Z,85.10
2018-10-11T08:48:06.110Z,82.80
2018-10-11T08:50:35.174Z,78.70
2018-10-11T08:53:04.212Z,83.40
2018-10-11T08:55:33.282Z,83.30
2018-10-11T08:58:02.318Z,80.80
2018-10-11T09:00:31.393Z,78.60
2018-10-11T09:03:00.477Z,73.00
2018-10-11T09:05:29.527Z,77.90
2018-10-11T09:07:58.576Z,70.80
2018-10-11T09:10:37.862Z,74.40
2018-10-11T09:12:56.662Z,70.40
2018-10-11T09:15:25.787Z,71.50
2018-10-11T09:17:54.857Z,73.20
2018-10-11T09:20:23.932Z,73.10
2018-10-11T09:22:52.957Z,73.30
2018-10-11T09:25:22.069Z,69.70
2018-10-11T09:27:51.336Z,69.40
2018-10-11T09:30:20.483Z,71.10
2018-10-11T09:32:49.503Z,70.00
2018-10-11T09:35:18.587Z,68.90
2018-10-11T09:37:47.612Z,66.80
2018-10-11T09:40:16.706Z,67.40
2018-10-11T09:42:45.813Z,66.30
2018-10-11T09:45:14.825Z,64.90
2018-10-11T09:47:43.902Z,60.60
2018-10-11T09:50:12.951Z,65.20
2018-10-11T09:52:41.979Z,59.00
2018-10-11T09:55:11.030Z,57.80
2018-10-11T09:57:40.176Z,59.30
2018-10-11T10:00:15.621Z,59.70
2018-10-11T10:02:57.515Z,59.10
2018-10-11T10:05:26.630Z,58.70
2018-10-11T10:07:55.710Z,58.80
2018-10-11T10:10:24.721Z,55.20
2018-10-11T10:12:53.799Z,55.30
2018-10-11T10:15:22.882Z,56.30
2018-10-11T10:17:51.832Z,57.20
2018-10-11T10:20:20.874Z,55.70
2018-10-11T10:22:49.852Z,52.90
2018-10-11T10:25:18.896Z,53.60
2018-10-11T10:27:47.887Z,51.90
2018-10-11T10:30:22.034Z,54.30
2018-10-11T10:32:51.075Z,52.20
2018-10-11T10:35:20.164Z,50.30
2018-10-11T10:37:49.234Z,50.50
2018-10-11T10:40:18.241Z,50.70
2018-10-11T10:42:47.368Z,50.80
2018-10-11T10:45:16.420Z,52.70
2018-10-11T10:47:45.449Z,50.50
2018-10-11T10:50:14.379Z,49.90
2018-10-11T10:52:43.445Z,49.80
2018-10-11T10:55:12.374Z,48.40
2018-10-11T10:57:41.364Z,49.50
2018-10-11T11:00:10.421Z,48.70
2018-10-11T11:02:39.451Z,48.50
2018-10-11T11:05:08.460Z,47.50
2018-10-11T11:07:37.542Z,47.40
2018-10-11T11:10:07.080Z,48.10
2018-10-11T11:12:36.107Z,47.10
2018-10-11T11:15:05.255Z,47.10
2018-10-11T11:17:34.172Z,46.60
2018-10-11T11:20:03.246Z,47.00
2018-10-11T11:22:32.309Z,46.60
2018-10-11T11:25:01.349Z,46.50
2018-10-11T11:27:30.443Z,47.60
2018-10-11T11:29:59.477Z,46.40
2018-10-11T11:32:28.440Z,46.70
2018-10-11T11:34:57.441Z,47.00
2018-10-11T11:37:26.383Z,46.40
2018-10-11T11:39:55.320Z,45.70
2018-10-11T11:42:24.365Z,44.80
2018-10-11T11:44:53.301Z,45.40
2018-10-11T11:47:22.308Z,45.50
2018-10-11T11:49:51.306Z,47.90
2018-10-11T11:52:20.310Z,45.50
2018-10-11T11:54:49.285Z,45.70
2018-10-11T11:57:18.266Z,45.70
2018-10-11T11:59:47.232Z,45.60
2018-10-11T12:02:16.203Z,45.60
2018-10-11T12:04:45.186Z,45.80
2018-10-11T12:07:14.206Z,45.40
2018-10-11T12:09:43.206Z,44.70
2018-10-11T12:12:23.886Z,45.40
2018-10-11T12:14:52.796Z,46.70
2018-10-11T12:17:21.771Z,45.30
2018-10-11T12:19:50.758Z,45.20
2018-10-11T12:22:24.193Z,45.60
2018-10-11T12:24:53.325Z,44.50
2018-10-11T12:27:22.290Z,45.30
2018-10-11T12:29:51.282Z,45.10
2018-10-11T12:32:20.248Z,44.90
2018-10-11T12:34:49.190Z,43.50
2018-10-11T12:37:18.098Z,44.30
2018-10-11T12:39:47.200Z,44.10
2018-10-11T12:42:16.186Z,42.40
2018-10-11T12:44:45.168Z,43.10
2018-10-11T12:47:14.154Z,42.10
2018-10-11T12:49:46.618Z,41.20
2018-10-11T12:52:12.257Z,40.70
2018-10-11T12:54:41.170Z,40.50
2018-10-11T12:57:13.573Z,39.30
2018-10-11T12:59:39.181Z,39.40
2018-10-11T13:02:08.102Z,39.10
2018-10-11T13:04:37.137Z,39.20
2018-10-11T13:07:06.170Z,37.80
2018-10-11T13:09:35.383Z,36.40
2018-10-11T13:12:04.367Z,34.70
2018-10-11T13:14:33.366Z,33.90
2018-10-11T13:17:02.369Z,34.90
2018-10-11T13:19:31.326Z,34.70
2018-10-11T13:22:00.353Z,33.50
2018-10-11T13:24:29.337Z,32.80
2018-10-11T13:26:58.377Z,32.80
2018-10-11T13:29:27.826Z,33.00
2018-10-11T13:31:56.795Z,32.50
2018-10-11T13:34:25.778Z,33.00
2018-10-11T13:36:54.820Z,32.10
2018-10-11T13:39:23.920Z,32.10
2018-10-11T13:41:53.036Z,31.10
2018-10-11T13:44:21.978Z,31.90
2018-10-11T13:46:51.033Z,30.80
2018-10-11T13:49:20.022Z,31.60
2018-10-11T13:51:48.995Z,32.00
2018-10-11T13:54:23.676Z,31.80
2018-10-11T13:56:57.007Z,32.20
2018-10-11T13:59:21.761Z,33.30
2018-10-11T14:01:50.775Z,35.90
2018-10-11T14:04:19.789Z,37.30
2018-10-11T14:06:48.860Z,38.40
2018-10-11T14:09:17.794Z,39.10
2018-10-11T14:11:46.746Z,40.90
2018-10-11T14:14:15.746Z,41.60
2018-10-11T14:16:51.223Z,42.90
2018-10-11T14:19:20.241Z,43.60
2018-10-11T14:21:49.187Z,43.50
2018-10-11T14:24:18.230Z,43.60
2018-10-11T14:26:47.171Z,44.80
2018-10-11T14:29:16.125Z,43.70
2018-10-11T14:31:45.060Z,44.20
2018-10-11T14:34:14.060Z,44.70
2018-10-11T14:36:43.112Z,46.40
2018-10-11T14:39:12.192Z,47.30
2018-10-11T14:41:51.801Z,47.10
2018-10-11T14:44:20.780Z,48.30
2018-10-11T14:46:49.841Z,49.70
2018-10-11T14:49:18.903Z,48.00
2018-10-11T14:51:48.783Z,50.20
2018-10-11T14:54:16.965Z,47.90
2018-10-11T14:56:45.982Z,47.90
2018-10-11T14:59:15.110Z,47.30
2018-10-11T15:01:44.063Z,47.40
2018-10-11T15:04:13.110Z,47.80
2018-10-11T15:06:42.172Z,48.10
2018-10-11T15:09:11.604Z,48.10
2018-10-11T15:11:40.723Z,49.90
2018-10-11T15:14:09.765Z,51.20
2018-10-11T15:16:38.848Z,51.50
2018-10-11T15:19:07.847Z,51.60
2018-10-11T15:21:36.835Z,52.50
2018-10-11T15:24:06.016Z,52.90
2018-10-11T15:26:35.025Z,51.80
2018-10-11T15:29:04.085Z,50.90
2018-10-11T15:31:33.042Z,50.50
2018-10-11T15:34:02.023Z,51.30
2018-10-11T15:36:31.196Z,52.40
2018-10-11T15:39:00.232Z,52.60
2018-10-11T15:41:29.389Z,54.00
2018-10-11T15:43:58.330Z,55.00
2018-10-11T15:46:27.349Z,53.40
2018-10-11T15:48:56.334Z,54.40
2018-10-11T15:51:26.088Z,52.50
2018-10-11T15:53:55.134Z,51.80
2018-10-11T15:56:24.163Z,53.70
2018-10-11T15:58:53.125Z,54.80
2018-10-11T16:01:22.104Z,54.30
2018-10-11T16:03:51.140Z,54.70
2018-10-11T16:06:20.142Z,55.30
2018-10-11T16:08:49.142Z,56.50
2018-10-11T16:11:18.094Z,56.80
2018-10-11T16:13:47.043Z,57.50
2018-10-11T16:16:16.035Z,58.20
2018-10-11T16:18:44.989Z,59.10
2018-10-11T16:21:13.988Z,59.00
2018-10-11T16:23:42.967Z,59.60
2018-10-11T16:26:11.975Z,60.90
2018-10-11T16:28:41.051Z,59.90
2018-10-11T16:31:10.172Z,60.30
2018-10-11T16:33:39.160Z,62.40
2018-10-11T16:36:08.110Z,63.90
2018-10-11T16:38:37.273Z,65.50
2018-10-11T16:41:06.252Z,65.20
2018-10-11T16:43:35.271Z,64.90
2018-10-11T16:46:04.262Z,65.90
2018-10-11T16:48:33.272Z,67.00
2018-10-11T16:51:02.376Z,66.00
2018-10-11T16:53:31.351Z,64.60
2018-10-11T16:56:00.473Z,65.60
2018-10-11T16:58:29.577Z,66.90
2018-10-11T17:00:58.573Z,67.10
2018-10-11T17:03:27.515Z,66.40
2018-10-11T17:05:56.519Z,65.90
2018-10-11T17:08:25.499Z,65.20
2018-10-11T17:10:54.489Z,63.30
2018-10-11T17:13:23.514Z,65.70
2018-10-11T17:15:52.585Z,62.80
2018-10-11T17:18:21.518Z,64.10
2018-10-11T17:20:50.539Z,65.20
2018-10-11T17:23:19.570Z,64.90
2018-10-11T17:25:48.508Z,64.20
2018-10-11T17:28:17.594Z,66.30
2018-10-11T17:30:46.644Z,66.80
2018-10-11T17:33:15.623Z,66.50
2018-10-11T17:35:44.549Z,67.60
2018-10-11T17:38:13.606Z,67.40
2018-10-11T17:40:42.561Z,67.00
2018-10-11T17:43:11.648Z,68.80
2018-10-11T17:45:40.691Z,69.70
2018-10-11T17:48:09.645Z,70.70
2018-10-11T17:50:38.570Z,71.80
2018-10-11T17:53:07.610Z,72.30
2018-10-11T17:55:36.663Z,72.70
2018-10-11T17:58:05.665Z,72.30
2018-10-11T18:00:34.818Z,71.80
2018-10-11T18:03:03.826Z,73.00
2018-10-11T18:05:32.857Z,73.70
2018-10-11T18:08:01.778Z,73.70
2018-10-11T18:10:30.846Z,72.40
2018-10-11T18:12:59.840Z,73.40
2018-10-11T18:15:28.815Z,72.80
2018-10-11T18:17:57.990Z,74.50
2018-10-11T18:20:27.160Z,74.00
2018-10-11T18:22:56.305Z,74.20
2018-10-11T18:25:25.589Z,74.20
2018-10-11T18:27:54.771Z,73.60
2018-10-11T18:30:24.233Z,74.20
2018-10-11T18:32:53.423Z,74.00
2018-10-11T18:35:34.190Z,73.80
2018-10-11T18:38:03.357Z,74.80
2018-10-11T18:40:32.510Z,74.50
2018-10-11T18:43:01.790Z,75.30
2018-10-11T18:45:31.089Z,75.20
2018-10-11T18:48:00.121Z,75.60
2018-10-11T18:50:29.273Z,76.40
2018-10-11T18:52:58.420Z,77.00
2018-10-11T18:55:27.734Z,78.30
2018-10-11T18:57:56.943Z,78.20
2018-10-11T19:00:26.282Z,78.70
2018-10-11T19:02:55.529Z,79.50
2018-10-11T19:05:24.810Z,79.90
2018-10-11T19:07:54.033Z,80.60
2018-10-11T19:10:23.286Z,81.30
2018-10-11T19:12:52.765Z,82.00
2018-10-11T19:15:22.373Z,82.80
2018-10-11T19:17:51.692Z,83.30
2018-10-11T19:20:21.153Z,83.80
2018-10-11T19:22:50.631Z,84.50
2018-10-11T19:25:20.088Z,85.30
2018-10-11T19:27:49.472Z,85.80
2018-10-11T19:30:18.634Z,86.50
2018-10-11T19:32:47.900Z,87.00
2018-10-11T19:35:16.862Z,87.60
2018-10-11T19:37:46.000Z,88.10
2018-10-11T19:40:15.078Z,88.40
2018-10-11T19:42:44.186Z,88.80
2018-10-11T19:45:13.210Z,88.70
2018-10-11T19:47:42.339Z,89.50
2018-10-11T19:50:11.708Z,89.80
2018-10-11T19:52:41.029Z,90.00
2018-10-11T19:55:10.210Z,90.20
2018-10-11T19:57:39.361Z,90.50
2018-10-11T20:00:08.566Z,90.50
2018-10-11T20:02:37.603Z,91.00
2018-10-11T20:05:06.978Z,91.00
2018-10-11T20:07:36.151Z,91.00
2018-10-11T20:10:05.393Z,91.20
2018-10-11T20:12:34.438Z,91.40
2018-10-11T20:15:03.772Z,91.50
2018-10-11T20:17:33.562Z,91.70
2018-10-11T20:20:02.749Z,91.80
2018-10-11T20:22:32.036Z,91.80
2018-10-11T20:25:01.272Z,91.80
2018-10-11T20:27:30.247Z,92.00
2018-10-11T20:29:59.370Z,92.10
2018-10-11T20:32:28.405Z,92.20
2018-10-11T20:34:57.361Z,92.40
2018-10-11T20:37:26.324Z,92.40
2018-10-11T20:39:55.324Z,92.40
2018-10-11T20:42:24.327Z,92.60
2018-10-11T20:44:53.386Z,92.80
2018-10-11T20:47:22.391Z,92.80
2018-10-11T20:49:51.412Z,93.00
2018-10-11T20:52:20.431Z,93.20
2018-10-11T20:54:49.374Z,93.30
2018-10-11T20:57:18.447Z,93.40
2018-10-11T20:59:47.416Z,93.50
2018-10-11T21:02:16.382Z,93.70
2018-10-11T21:04:45.420Z,93.80
2018-10-11T21:07:14.495Z,94.00
2018-10-11T21:09:43.509Z,94.10
2018-10-11T21:12:12.464Z,94.10
2018-10-11T21:14:41.486Z,94.30
2018-10-11T21:17:10.715Z,94.30
2018-10-11T21:19:39.696Z,94.30
2018-10-11T21:22:08.919Z,94.40
2018-10-11T21:24:37.960Z,94.50
2018-10-11T21:27:07.145Z,94.60
2018-10-11T21:29:36.157Z,94.60
2018-10-11T21:32:05.201Z,94.70
2018-10-11T21:34:34.238Z,94.80
2018-10-11T21:37:03.389Z,94.90
2018-10-11T21:39:32.437Z,94.90
2018-10-11T21:42:13.416Z,95.00
2018-10-11T21:44:42.390Z,95.00
2018-10-11T21:47:11.331Z,95.00
2018-10-11T21:49:40.363Z,95.10
2018-10-11T21:52:10.002Z,95.20
2018-10-11T21:54:39.001Z,95.20
2018-10-11T21:57:08.103Z,95.30
2018-10-11T21:59:37.103Z,95.40
2018-10-11T22:02:06.156Z,95.40
2018-10-11T22:04:35.163Z,95.70
2018-10-11T22:07:04.181Z,95.60
2018-10-11T22:09:33.187Z,95.70
2018-10-11T22:12:02.209Z,95.70
2018-10-11T22:14:31.247Z,95.90
2018-10-11T22:17:00.276Z,95.90
2018-10-11T22:19:29.299Z,96.00
2018-10-11T22:21:58.240Z,95.90
2018-10-11T22:24:27.300Z,95.90
2018-10-11T22:26:56.297Z,96.00
2018-10-11T22:29:25.210Z,96.10
2018-10-11T22:31:54.311Z,96.10
2018-10-11T22:34:23.344Z,96.50
2018-10-11T22:36:52.431Z,96.30
2018-10-11T22:39:21.586Z,96.40
2018-10-11T22:41:50.686Z,96.80
2018-10-11T22:44:19.636Z,96.70
2018-10-11T22:46:48.658Z,96.80
2018-10-11T22:49:17.647Z,97.00
2018-10-11T22:51:46.584Z,97.40
2018-10-11T22:54:15.597Z,97.00
2018-10-11T22:56:44.613Z,96.60
2018-10-11T22:59:13.616Z,96.50
2018-10-11T23:01:42.652Z,96.30
2018-10-11T23:04:11.612Z,96.20
2018-10-11T23:06:40.630Z,96.00
2018-10-11T23:09:10.304Z,95.80
2018-10-11T23:11:39.328Z,95.70
2018-10-11T23:14:08.362Z,95.80
2018-10-11T23:16:37.364Z,95.90
2018-10-11T23:19:06.520Z,95.80
2018-10-11T23:21:35.574Z,95.80
2018-10-11T23:24:04.563Z,95.80
2018-10-11T23:26:33.531Z,95.60
2018-10-11T23:29:02.506Z,95.50
2018-10-11T23:31:31.471Z,95.40
2018-10-11T23:34:00.489Z,95.20
2018-10-11T23:36:29.454Z,95.30
2018-10-11T23:38:58.478Z,95.30
2018-10-11T23:41:27.430Z,95.20
2018-10-11T23:43:56.526Z,95.10
2018-10-11T23:46:25.494Z,95.20
2018-10-11T23:48:54.404Z,95.20
2018-10-11T23:51:23.375Z,95.00
2018-10-11T23:53:52.274Z,94.90
2018-10-11T23:56:21.250Z,94.70
2018-10-11T23:58:50.212Z,94.90
